sensor_id;sensor_type;location;lat;lon;timestamp;pressure;altitude;pressure_sealevel;temperature;humidity
68193;BME280;55012;47.562;18.414;2023-03-01T00:01:06;100332.75;;;4.62;100.00
68193;BME280;55012;47.562;18.414;2023-03-01T00:03:33;100331.97;;;4.62;100.00
68193;BME280;55012;47.562;18.414;2023-03-01T00:05:59;100324.50;;;4.59;100.00
68193;BME280;55012;47.562;18.414;2023-03-01T00:08:25;100332.81;;;4.57;100.00
68193;BME280;55012;47.562;18.414;2023-03-01T00:13:31;100328.00;;;4.54;100.00
68193;BME280;55012;47.562;18.414;2023-03-01T00:15:57;100337.09;;;4.53;100.00
68193;BME280;55012;47.562;18.414;2023-03-01T00:18:23;100340.06;;;4.51;100.00
68193;BME280;55012;47.562;18.414;2023-03-01T00:20:53;100344.13;;;4.49;100.00
68193;BME280;55012;47.562;18.414;2023-03-01T00:23:19;100350.28;;;4.49;100.00
68193;BME280;55012;47.562;18.414;2023-03-01T00:25:45;100341.16;;;4.45;100.00
68193;BME280;55012;47.562;18.414;2023-03-01T00:28:10;100341.94;;;4.51;100.00
68193;BME280;55012;47.562;18.414;2023-03-01T00:30:36;100339.56;;;4.49;100.00
68193;BME280;55012;47.562;18.414;2023-03-01T00:33:01;100345.44;;;4.46;100.00
68193;BME280;55012;47.562;18.414;2023-03-01T00:35:27;100342.03;;;4.41;100.00
68193;BME280;55012;47.562;18.414;2023-03-01T00:37:52;100343.34;;;4.38;100.00
68193;BME280;55012;47.562;18.414;2023-03-01T00:40:26;100344.44;;;4.37;100.00
68193;BME280;55012;47.562;18.414;2023-03-01T00:42:52;100343.13;;;4.35;100.00
68193;BME280;55012;47.562;18.414;2023-03-01T00:45:18;100340.72;;;4.33;100.00
68193;BME280;55012;47.562;18.414;2023-03-01T00:47:43;100347.16;;;4.32;100.00
68193;BME280;55012;47.562;18.414;2023-03-01T00:50:10;100338.84;;;4.29;100.00
68193;BME280;55012;47.562;18.414;2023-03-01T00:52:36;100335.09;;;4.30;100.00
68193;BME280;55012;47.562;18.414;2023-03-01T00:55:02;100338.03;;;4.33;100.00
68193;BME280;55012;47.562;18.414;2023-03-01T00:57:27;100336.97;;;4.34;100.00
68193;BME280;55012;47.562;18.414;2023-03-01T00:59:52;100328.13;;;4.34;100.00
68193;BME280;55012;47.562;18.414;2023-03-01T01:02:19;100312.56;;;4.36;100.00
68193;BME280;55012;47.562;18.414;2023-03-01T01:04:45;100316.31;;;4.40;100.00
68193;BME280;55012;47.562;18.414;2023-03-01T01:07:10;100315.47;;;4.44;100.00
68193;BME280;55012;47.562;18.414;2023-03-01T01:09:36;100317.31;;;4.49;100.00
68193;BME280;55012;47.562;18.414;2023-03-01T01:12:02;100312.50;;;4.46;100.00
68193;BME280;55012;47.562;18.414;2023-03-01T01:14:28;100320.03;;;4.44;100.00
68193;BME280;55012;47.562;18.414;2023-03-01T01:16:54;100312.25;;;4.42;100.00
68193;BME280;55012;47.562;18.414;2023-03-01T01:19:20;100315.22;;;4.41;100.00
68193;BME280;55012;47.562;18.414;2023-03-01T01:21:45;100306.97;;;4.32;100.00
68193;BME280;55012;47.562;18.414;2023-03-01T01:24:11;100309.66;;;4.27;100.00
68193;BME280;55012;47.562;18.414;2023-03-01T01:26:37;100312.13;;;4.23;100.00
68193;BME280;55012;47.562;18.414;2023-03-01T01:29:04;100300.63;;;4.18;100.00
68193;BME280;55012;47.562;18.414;2023-03-01T01:31:31;100299.59;;;4.14;100.00
68193;BME280;55012;47.562;18.414;2023-03-01T01:33:58;100288.03;;;4.18;100.00
68193;BME280;55012;47.562;18.414;2023-03-01T01:36:24;100286.13;;;4.24;100.00
68193;BME280;55012;47.562;18.414;2023-03-01T01:38:50;100288.53;;;4.26;100.00
68193;BME280;55012;47.562;18.414;2023-03-01T01:41:16;100280.50;;;4.20;100.00
68193;BME280;55012;47.562;18.414;2023-03-01T01:43:44;100274.06;;;4.21;100.00
68193;BME280;55012;47.562;18.414;2023-03-01T01:46:30;100271.69;;;4.20;100.00
68193;BME280;55012;47.562;18.414;2023-03-01T01:49:02;100253.81;;;4.05;100.00
68193;BME280;55012;47.562;18.414;2023-03-01T01:51:32;100259.66;;;4.17;100.00
68193;BME280;55012;47.562;18.414;2023-03-01T01:54:16;100260.72;;;4.16;100.00
68193;BME280;55012;47.562;18.414;2023-03-01T01:56:50;100245.47;;;4.12;100.00
68193;BME280;55012;47.562;18.414;2023-03-01T01:59:18;100236.63;;;4.16;100.00
68193;BME280;55012;47.562;18.414;2023-03-01T02:01:43;100234.97;;;4.20;100.00
68193;BME280;55012;47.562;18.414;2023-03-01T02:04:09;100221.06;;;4.23;100.00
68193;BME280;55012;47.562;18.414;2023-03-01T02:06:41;100221.56;;;4.26;100.00
68193;BME280;55012;47.562;18.414;2023-03-01T02:09:13;100210.34;;;4.23;100.00
68193;BME280;55012;47.562;18.414;2023-03-01T02:11:40;100208.75;;;4.22;100.00
68193;BME280;55012;47.562;18.414;2023-03-01T02:14:06;100209.34;;;4.14;100.00
68193;BME280;55012;47.562;18.414;2023-03-01T02:16:31;100205.91;;;4.04;100.00
68193;BME280;55012;47.562;18.414;2023-03-01T02:18:58;100197.41;;;3.91;100.00
68193;BME280;55012;47.562;18.414;2023-03-01T02:27:09;100171.97;;;3.45;100.00
68193;BME280;55012;47.562;18.414;2023-03-01T02:29:35;100152.78;;;3.32;100.00
68193;BME280;55012;47.562;18.414;2023-03-01T02:32:01;100132.22;;;3.23;100.00
68193;BME280;55012;47.562;18.414;2023-03-01T02:34:29;100105.50;;;3.13;100.00
68193;BME280;55012;47.562;18.414;2023-03-01T02:37:02;100077.53;;;3.00;100.00
68193;BME280;55012;47.562;18.414;2023-03-01T02:39:48;100041.47;;;2.92;100.00
68193;BME280;55012;47.562;18.414;2023-03-01T02:42:20;100002.47;;;2.86;100.00
68193;BME280;55012;47.562;18.414;2023-03-01T02:44:49;99938.34;;;2.86;100.00
68193;BME280;55012;47.562;18.414;2023-03-01T02:47:14;99862.44;;;2.87;100.00
68193;BME280;55012;47.562;18.414;2023-03-01T02:49:40;99776.63;;;2.94;100.00
68193;BME280;55012;47.562;18.414;2023-03-01T02:54:40;99657.03;;;3.04;100.00
68193;BME280;55012;47.562;18.414;2023-03-01T02:57:08;99582.75;;;3.06;100.00
68193;BME280;55012;47.562;18.414;2023-03-01T02:59:35;99559.19;;;3.08;100.00
68193;BME280;55012;47.562;18.414;2023-03-01T03:02:16;99526.53;;;3.12;100.00
68193;BME280;55012;47.562;18.414;2023-03-01T03:04:46;99489.59;;;3.14;100.00
68193;BME280;55012;47.562;18.414;2023-03-01T03:07:11;99462.31;;;3.17;100.00
68193;BME280;55012;47.562;18.414;2023-03-01T03:09:37;99430.22;;;3.17;100.00
68193;BME280;55012;47.562;18.414;2023-03-01T03:12:02;99402.72;;;3.16;100.00
68193;BME280;55012;47.562;18.414;2023-03-01T03:14:28;99391.22;;;3.16;100.00
68193;BME280;55012;47.562;18.414;2023-03-01T03:16:53;99389.41;;;3.11;100.00
68193;BME280;55012;47.562;18.414;2023-03-01T03:19:19;99400.69;;;3.08;100.00
68193;BME280;55012;47.562;18.414;2023-03-01T03:21:45;99397.50;;;3.06;100.00
68193;BME280;55012;47.562;18.414;2023-03-01T03:24:11;99396.44;;;3.07;100.00
68193;BME280;55012;47.562;18.414;2023-03-01T03:26:36;99390.00;;;3.08;100.00
68193;BME280;55012;47.562;18.414;2023-03-01T03:29:02;99413.16;;;3.13;100.00
68193;BME280;55012;47.562;18.414;2023-03-01T03:31:28;99425.97;;;3.16;100.00
68193;BME280;55012;47.562;18.414;2023-03-01T03:33:54;99448.84;;;3.22;100.00
68193;BME280;55012;47.562;18.414;2023-03-01T03:36:21;99468.28;;;3.27;100.00
68193;BME280;55012;47.562;18.414;2023-03-01T03:38:47;99500.81;;;3.34;100.00
68193;BME280;55012;47.562;18.414;2023-03-01T03:41:14;99534.69;;;3.39;100.00
68193;BME280;55012;47.562;18.414;2023-03-01T03:43:40;99580.38;;;3.43;100.00
68193;BME280;55012;47.562;18.414;2023-03-01T03:46:08;99643.97;;;3.46;100.00
68193;BME280;55012;47.562;18.414;2023-03-01T03:48:40;99684.03;;;3.51;100.00
68193;BME280;55012;47.562;18.414;2023-03-01T03:51:06;99711.59;;;3.51;100.00
68193;BME280;55012;47.562;18.414;2023-03-01T03:53:32;99749.00;;;3.56;100.00
68193;BME280;55012;47.562;18.414;2023-03-01T03:55:58;99771.19;;;3.57;100.00
68193;BME280;55012;47.562;18.414;2023-03-01T03:58:25;99783.75;;;3.56;100.00
68193;BME280;55012;47.562;18.414;2023-03-01T04:00:53;99794.88;;;3.63;100.00
68193;BME280;55012;47.562;18.414;2023-03-01T04:03:19;99809.31;;;3.67;100.00
68193;BME280;55012;47.562;18.414;2023-03-01T04:05:46;99822.91;;;3.71;100.00
68193;BME280;55012;47.562;18.414;2023-03-01T04:08:12;99835.72;;;3.74;100.00
68193;BME280;55012;47.562;18.414;2023-03-01T04:10:44;99849.09;;;3.74;100.00
68193;BME280;55012;47.562;18.414;2023-03-01T04:13:14;99861.69;;;3.74;100.00
68193;BME280;55012;47.562;18.414;2023-03-01T04:15:41;99870.53;;;3.74;100.00
68193;BME280;55012;47.562;18.414;2023-03-01T04:18:08;99924.03;;;3.74;100.00
68193;BME280;55012;47.562;18.414;2023-03-01T04:20:36;99918.69;;;3.74;100.00
68193;BME280;55012;47.562;18.414;2023-03-01T04:23:05;99928.00;;;3.77;100.00
68193;BME280;55012;47.562;18.414;2023-03-01T04:25:58;99930.19;;;3.75;100.00
68193;BME280;55012;47.562;18.414;2023-03-01T04:30:55;99932.06;;;3.74;100.00
68193;BME280;55012;47.562;18.414;2023-03-01T04:33:21;99939.81;;;3.76;100.00
68193;BME280;55012;47.562;18.414;2023-03-01T04:35:48;99951.59;;;3.75;100.00
68193;BME280;55012;47.562;18.414;2023-03-01T04:38:19;99944.88;;;3.77;100.00
68193;BME280;55012;47.562;18.414;2023-03-01T04:40:46;99952.91;;;3.77;100.00
68193;BME280;55012;47.562;18.414;2023-03-01T04:43:12;99948.91;;;3.75;100.00
68193;BME280;55012;47.562;18.414;2023-03-01T04:45:40;99947.31;;;3.74;100.00
68193;BME280;55012;47.562;18.414;2023-03-01T04:48:06;99942.97;;;3.78;100.00
68193;BME280;55012;47.562;18.414;2023-03-01T04:50:31;99944.84;;;3.82;100.00
68193;BME280;55012;47.562;18.414;2023-03-01T04:52:57;99943.16;;;3.86;100.00
68193;BME280;55012;47.562;18.414;2023-03-01T04:55:27;99934.53;;;3.94;100.00
68193;BME280;55012;47.562;18.414;2023-03-01T04:57:53;99924.56;;;4.00;100.00
68193;BME280;55012;47.562;18.414;2023-03-01T05:00:19;99915.13;;;4.08;100.00
68193;BME280;55012;47.562;18.414;2023-03-01T05:02:53;99917.16;;;4.16;100.00
68193;BME280;55012;47.562;18.414;2023-03-01T05:05:39;99923.78;;;4.23;100.00
68193;BME280;55012;47.562;18.414;2023-03-01T05:08:07;99923.50;;;4.25;100.00
68193;BME280;55012;47.562;18.414;2023-03-01T05:10:35;99935.28;;;4.24;100.00
68193;BME280;55012;47.562;18.414;2023-03-01T05:13:01;99954.59;;;4.21;100.00
68193;BME280;55012;47.562;18.414;2023-03-01T05:15:29;99954.38;;;4.17;100.00
68193;BME280;55012;47.562;18.414;2023-03-01T05:17:56;99973.94;;;4.13;100.00
68193;BME280;55012;47.562;18.414;2023-03-01T05:20:25;99972.66;;;4.10;100.00
68193;BME280;55012;47.562;18.414;2023-03-01T05:22:51;99977.22;;;4.10;100.00
68193;BME280;55012;47.562;18.414;2023-03-01T05:25:17;99973.72;;;4.09;100.00
68193;BME280;55012;47.562;18.414;2023-03-01T05:27:43;99979.09;;;4.09;100.00
68193;BME280;55012;47.562;18.414;2023-03-01T05:30:09;99976.19;;;4.06;100.00
68193;BME280;55012;47.562;18.414;2023-03-01T05:32:48;99980.50;;;4.02;100.00
68193;BME280;55012;47.562;18.414;2023-03-01T05:35:15;99982.66;;;4.00;100.00
68193;BME280;55012;47.562;18.414;2023-03-01T05:37:47;99983.75;;;3.99;100.00
68193;BME280;55012;47.562;18.414;2023-03-01T05:40:17;99975.72;;;3.99;100.00
68193;BME280;55012;47.562;18.414;2023-03-01T05:42:54;99978.91;;;4.01;100.00
68193;BME280;55012;47.562;18.414;2023-03-01T05:45:21;99978.13;;;4.00;100.00
68193;BME280;55012;47.562;18.414;2023-03-01T05:47:49;99986.94;;;4.01;100.00
68193;BME280;55012;47.562;18.414;2023-03-01T05:52:49;99974.47;;;3.91;100.00
68193;BME280;55012;47.562;18.414;2023-03-01T05:55:17;99996.59;;;3.97;100.00
68193;BME280;55012;47.562;18.414;2023-03-01T05:57:43;99999.28;;;3.97;100.00
68193;BME280;55012;47.562;18.414;2023-03-01T06:00:10;100003.56;;;3.98;100.00
68193;BME280;55012;47.562;18.414;2023-03-01T06:02:35;100002.44;;;4.04;100.00
68193;BME280;55012;47.562;18.414;2023-03-01T06:05:01;100003.47;;;4.08;100.00
68193;BME280;55012;47.562;18.414;2023-03-01T06:07:27;100006.84;;;4.18;100.00
68193;BME280;55012;47.562;18.414;2023-03-01T06:09:53;100033.03;;;4.21;100.00
68193;BME280;55012;47.562;18.414;2023-03-01T06:12:18;100046.41;;;4.27;100.00
68193;BME280;55012;47.562;18.414;2023-03-01T06:14:45;100055.47;;;4.31;100.00
68193;BME280;55012;47.562;18.414;2023-03-01T06:17:12;100069.38;;;4.33;100.00
68193;BME280;55012;47.562;18.414;2023-03-01T06:19:37;100079.00;;;4.34;100.00
68193;BME280;55012;47.562;18.414;2023-03-01T06:22:03;100089.16;;;4.37;100.00
68193;BME280;55012;47.562;18.414;2023-03-01T06:24:28;100094.22;;;4.38;100.00
68193;BME280;55012;47.562;18.414;2023-03-01T06:26:54;100108.38;;;4.44;100.00
68193;BME280;55012;47.562;18.414;2023-03-01T06:29:19;100108.09;;;4.45;100.00
68193;BME280;55012;47.562;18.414;2023-03-01T06:31:45;100111.53;;;4.51;100.00
68193;BME280;55012;47.562;18.414;2023-03-01T06:34:11;100122.75;;;4.53;100.00
68193;BME280;55012;47.562;18.414;2023-03-01T06:36:39;100126.97;;;4.59;100.00
68193;BME280;55012;47.562;18.414;2023-03-01T06:39:05;100137.91;;;4.63;100.00
68193;BME280;55012;47.562;18.414;2023-03-01T06:41:31;100135.78;;;4.65;100.00
68193;BME280;55012;47.562;18.414;2023-03-01T06:43:56;100134.91;;;4.69;100.00
68193;BME280;55012;47.562;18.414;2023-03-01T06:46:22;100132.19;;;4.74;100.00
68193;BME280;55012;47.562;18.414;2023-03-01T06:48:47;100143.38;;;4.82;100.00
68193;BME280;55012;47.562;18.414;2023-03-01T06:51:13;100152.16;;;4.87;100.00
68193;BME280;55012;47.562;18.414;2023-03-01T06:53:38;100154.50;;;4.94;100.00
68193;BME280;55012;47.562;18.414;2023-03-01T06:56:04;100156.84;;;5.00;100.00
68193;BME280;55012;47.562;18.414;2023-03-01T06:58:29;100173.69;;;5.06;100.00
68193;BME280;55012;47.562;18.414;2023-03-01T07:00:55;100175.50;;;5.11;100.00
68193;BME280;55012;47.562;18.414;2023-03-01T07:03:20;100186.19;;;5.16;100.00
68193;BME280;55012;47.562;18.414;2023-03-01T07:05:48;100182.91;;;5.19;100.00
68193;BME280;55012;47.562;18.414;2023-03-01T07:08:14;100191.47;;;5.21;100.00
68193;BME280;55012;47.562;18.414;2023-03-01T07:10:40;100197.09;;;5.24;100.00
68193;BME280;55012;47.562;18.414;2023-03-01T07:13:05;100188.75;;;5.26;100.00
68193;BME280;55012;47.562;18.414;2023-03-01T07:15:32;100200.22;;;5.31;100.00
68193;BME280;55012;47.562;18.414;2023-03-01T07:17:58;100214.16;;;5.33;100.00
68193;BME280;55012;47.562;18.414;2023-03-01T07:20:23;100215.75;;;5.34;100.00
68193;BME280;55012;47.562;18.414;2023-03-01T07:22:53;100222.16;;;5.39;100.00
68193;BME280;55012;47.562;18.414;2023-03-01T07:25:19;100226.66;;;5.43;100.00
68193;BME280;55012;47.562;18.414;2023-03-01T07:27:50;100226.66;;;5.43;100.00
68193;BME280;55012;47.562;18.414;2023-03-01T07:30:16;100225.34;;;5.41;100.00
68193;BME280;55012;47.562;18.414;2023-03-01T07:32:42;100207.13;;;5.38;100.00
68193;BME280;55012;47.562;18.414;2023-03-01T07:35:07;100225.50;;;5.49;100.00
68193;BME280;55012;47.562;18.414;2023-03-01T07:37:33;100229.44;;;5.57;100.00
68193;BME280;55012;47.562;18.414;2023-03-01T07:39:58;100227.22;;;5.64;100.00
68193;BME280;55012;47.562;18.414;2023-03-01T07:42:24;100233.84;;;5.72;100.00
68193;BME280;55012;47.562;18.414;2023-03-01T07:44:49;100229.19;;;5.77;100.00
68193;BME280;55012;47.562;18.414;2023-03-01T07:47:15;100241.66;;;5.87;100.00
68193;BME280;55012;47.562;18.414;2023-03-01T07:49:40;100233.59;;;5.92;100.00
68193;BME280;55012;47.562;18.414;2023-03-01T07:52:06;100239.91;;;6.01;100.00
68193;BME280;55012;47.562;18.414;2023-03-01T07:54:31;100241.44;;;6.07;100.00
68193;BME280;55012;47.562;18.414;2023-03-01T07:56:57;100247.91;;;6.06;100.00
68193;BME280;55012;47.562;18.414;2023-03-01T07:59:23;100260.38;;;5.97;100.00
68193;BME280;55012;47.562;18.414;2023-03-01T08:01:54;100261.75;;;5.95;100.00
68193;BME280;55012;47.562;18.414;2023-03-01T08:04:19;100249.56;;;6.02;100.00
68193;BME280;55012;47.562;18.414;2023-03-01T08:06:45;100249.44;;;6.12;100.00
68193;BME280;55012;47.562;18.414;2023-03-01T08:09:13;100252.19;;;6.26;100.00
68193;BME280;55012;47.562;18.414;2023-03-01T08:11:39;100251.03;;;6.32;100.00
68193;BME280;55012;47.562;18.414;2023-03-01T08:14:06;100242.38;;;6.35;100.00
68193;BME280;55012;47.562;18.414;2023-03-01T08:16:31;100239.91;;;6.39;100.00
68193;BME280;55012;47.562;18.414;2023-03-01T08:19:06;100246.00;;;6.44;100.00
68193;BME280;55012;47.562;18.414;2023-03-01T08:21:32;100255.94;;;6.44;100.00
68193;BME280;55012;47.562;18.414;2023-03-01T08:24:00;100248.69;;;6.44;100.00
68193;BME280;55012;47.562;18.414;2023-03-01T08:26:25;100253.19;;;6.49;100.00
68193;BME280;55012;47.562;18.414;2023-03-01T08:28:51;100262.34;;;6.48;100.00
68193;BME280;55012;47.562;18.414;2023-03-01T08:31:23;100253.69;;;6.51;100.00
68193;BME280;55012;47.562;18.414;2023-03-01T08:33:52;100255.50;;;6.56;100.00
68193;BME280;55012;47.562;18.414;2023-03-01T08:36:24;100252.47;;;6.62;100.00
68193;BME280;55012;47.562;18.414;2023-03-01T08:38:50;100248.69;;;6.77;100.00
68193;BME280;55012;47.562;18.414;2023-03-01T08:41:16;100253.03;;;6.92;100.00
68193;BME280;55012;47.562;18.414;2023-03-01T08:43:41;100242.59;;;7.04;100.00
68193;BME280;55012;47.562;18.414;2023-03-01T08:46:07;100238.81;;;7.19;100.00
68193;BME280;55012;47.562;18.414;2023-03-01T08:48:33;100236.06;;;7.38;100.00
68193;BME280;55012;47.562;18.414;2023-03-01T08:51:07;100245.00;;;7.60;100.00
68193;BME280;55012;47.562;18.414;2023-03-01T08:53:33;100233.13;;;7.75;100.00
68193;BME280;55012;47.562;18.414;2023-03-01T08:56:02;100237.81;;;7.83;100.00
68193;BME280;55012;47.562;18.414;2023-03-01T08:58:28;100230.50;;;7.98;100.00
68193;BME280;55012;47.562;18.414;2023-03-01T09:00:54;100226.38;;;8.14;100.00
68193;BME280;55012;47.562;18.414;2023-03-01T09:03:22;100224.72;;;8.27;100.00
68193;BME280;55012;47.562;18.414;2023-03-01T09:05:47;100226.00;;;8.43;100.00
68193;BME280;55012;47.562;18.414;2023-03-01T09:08:14;100226.75;;;8.57;100.00
68193;BME280;55012;47.562;18.414;2023-03-01T09:10:39;100230.53;;;8.56;100.00
68193;BME280;55012;47.562;18.414;2023-03-01T09:13:05;100219.94;;;8.60;100.00
68193;BME280;55012;47.562;18.414;2023-03-01T09:15:31;100226.38;;;8.72;100.00
68193;BME280;55012;47.562;18.414;2023-03-01T09:17:56;100232.00;;;8.85;100.00
68193;BME280;55012;47.562;18.414;2023-03-01T09:20:21;100232.34;;;8.92;100.00
68193;BME280;55012;47.562;18.414;2023-03-01T09:22:47;100233.69;;;9.03;100.00
68193;BME280;55012;47.562;18.414;2023-03-01T09:25:12;100224.06;;;9.11;100.00
68193;BME280;55012;47.562;18.414;2023-03-01T09:27:38;100218.69;;;9.19;100.00
68193;BME280;55012;47.562;18.414;2023-03-01T09:30:04;100217.28;;;9.31;100.00
68193;BME280;55012;47.562;18.414;2023-03-01T09:32:31;100215.09;;;9.41;100.00
68193;BME280;55012;47.562;18.414;2023-03-01T09:34:56;100213.56;;;9.57;100.00
68193;BME280;55012;47.562;18.414;2023-03-01T09:37:35;100206.91;;;9.64;100.00
68193;BME280;55012;47.562;18.414;2023-03-01T09:40:03;100213.41;;;9.54;100.00
68193;BME280;55012;47.562;18.414;2023-03-01T09:42:32;100208.47;;;9.47;100.00
68193;BME280;55012;47.562;18.414;2023-03-01T09:45:06;100201.31;;;9.51;100.00
68193;BME280;55012;47.562;18.414;2023-03-01T09:47:36;100196.56;;;9.57;100.00
68193;BME280;55012;47.562;18.414;2023-03-01T09:50:12;100191.97;;;9.66;100.00
68193;BME280;55012;47.562;18.414;2023-03-01T09:52:44;100197.06;;;9.68;100.00
68193;BME280;55012;47.562;18.414;2023-03-01T09:55:13;100190.72;;;9.72;100.00
68193;BME280;55012;47.562;18.414;2023-03-01T09:57:47;100189.13;;;9.71;100.00
68193;BME280;55012;47.562;18.414;2023-03-01T10:00:24;100185.47;;;9.76;100.00
68193;BME280;55012;47.562;18.414;2023-03-01T10:03:11;100181.84;;;9.89;100.00
68193;BME280;55012;47.562;18.414;2023-03-01T10:05:47;100174.84;;;10.05;100.00
68193;BME280;55012;47.562;18.414;2023-03-01T10:08:21;100182.31;;;10.08;100.00
68193;BME280;55012;47.562;18.414;2023-03-01T10:10:51;100186.44;;;10.06;100.00
68193;BME280;55012;47.562;18.414;2023-03-01T10:13:25;100171.81;;;10.16;100.00
68193;BME280;55012;47.562;18.414;2023-03-01T10:15:57;100167.56;;;10.23;100.00
68193;BME280;55012;47.562;18.414;2023-03-01T10:18:29;100163.56;;;10.29;100.00
68193;BME280;55012;47.562;18.414;2023-03-01T10:21:18;100162.78;;;10.29;100.00
68193;BME280;55012;47.562;18.414;2023-03-01T10:23:45;100157.50;;;10.41;100.00
68193;BME280;55012;47.562;18.414;2023-03-01T10:26:19;100168.94;;;10.55;100.00
68193;BME280;55012;47.562;18.414;2023-03-01T10:29:05;100165.00;;;10.44;100.00
68193;BME280;55012;47.562;18.414;2023-03-01T10:31:51;100177.69;;;10.00;100.00
68193;BME280;55012;47.562;18.414;2023-03-01T10:34:18;100159.06;;;9.64;100.00
68193;BME280;55012;47.562;18.414;2023-03-01T10:36:48;100164.84;;;9.23;100.00
68193;BME280;55012;47.562;18.414;2023-03-01T10:39:22;100154.81;;;8.75;100.00
68193;BME280;55012;47.562;18.414;2023-03-01T10:42:00;100139.59;;;8.48;100.00
68193;BME280;55012;47.562;18.414;2023-03-01T10:44:40;100147.81;;;8.21;100.00
68193;BME280;55012;47.562;18.414;2023-03-01T10:47:13;100138.56;;;8.13;100.00
68193;BME280;55012;47.562;18.414;2023-03-01T10:49:39;100133.38;;;8.25;100.00
68193;BME280;55012;47.562;18.414;2023-03-01T10:52:21;100129.91;;;8.25;100.00
68193;BME280;55012;47.562;18.414;2023-03-01T10:54:53;100132.88;;;8.37;100.00
68193;BME280;55012;47.562;18.414;2023-03-01T10:57:38;100114.06;;;8.46;100.00
68193;BME280;55012;47.562;18.414;2023-03-01T11:00:19;100120.13;;;8.60;100.00
68193;BME280;55012;47.562;18.414;2023-03-01T11:02:50;100108.28;;;8.61;100.00
68193;BME280;55012;47.562;18.414;2023-03-01T11:05:20;100114.00;;;8.68;100.00
68193;BME280;55012;47.562;18.414;2023-03-01T11:07:52;100109.16;;;8.87;100.00
68193;BME280;55012;47.562;18.414;2023-03-01T11:10:35;100110.75;;;8.88;100.00
68193;BME280;55012;47.562;18.414;2023-03-01T11:13:14;100109.69;;;9.07;100.00
68193;BME280;55012;47.562;18.414;2023-03-01T11:15:41;100095.16;;;9.42;100.00
68193;BME280;55012;47.562;18.414;2023-03-01T11:18:20;100105.84;;;9.65;100.00
68193;BME280;55012;47.562;18.414;2023-03-01T11:20:46;100112.22;;;9.69;100.00
68193;BME280;55012;47.562;18.414;2023-03-01T11:23:15;100107.75;;;9.81;100.00
68193;BME280;55012;47.562;18.414;2023-03-01T11:25:43;100106.94;;;10.07;100.00
68193;BME280;55012;47.562;18.414;2023-03-01T11:28:14;100106.31;;;10.01;100.00
68193;BME280;55012;47.562;18.414;2023-03-01T11:36:05;100095.94;;;10.38;100.00
68193;BME280;55012;47.562;18.414;2023-03-01T11:38:34;100098.56;;;10.64;100.00
68193;BME280;55012;47.562;18.414;2023-03-01T11:41:21;100101.53;;;10.80;100.00
68193;BME280;55012;47.562;18.414;2023-03-01T11:52:21;100117.59;;;10.38;100.00
68193;BME280;55012;47.562;18.414;2023-03-01T12:12:25;100085.94;;;10.21;100.00
68193;BME280;55012;47.562;18.414;2023-03-01T12:22:57;100084.91;;;8.96;100.00
68193;BME280;55012;47.562;18.414;2023-03-01T12:25:38;100073.47;;;8.90;100.00
68193;BME280;55012;47.562;18.414;2023-03-01T12:33:57;100061.09;;;8.98;100.00
68193;BME280;55012;47.562;18.414;2023-03-01T12:47:41;100045.06;;;9.01;100.00
68193;BME280;55012;47.562;18.414;2023-03-01T12:50:27;100054.78;;;9.03;100.00
68193;BME280;55012;47.562;18.414;2023-03-01T12:52:57;100060.00;;;8.99;100.00
68193;BME280;55012;47.562;18.414;2023-03-01T13:00:46;100055.94;;;9.36;100.00
68193;BME280;55012;47.562;18.414;2023-03-01T13:03:31;100060.84;;;9.51;100.00
68193;BME280;55012;47.562;18.414;2023-03-01T13:06:17;100065.63;;;9.37;100.00
68193;BME280;55012;47.562;18.414;2023-03-01T13:09:13;100053.22;;;9.10;100.00
68193;BME280;55012;47.562;18.414;2023-03-01T13:11:42;100048.41;;;8.98;100.00
68193;BME280;55012;47.562;18.414;2023-03-01T13:16:52;100041.31;;;9.28;100.00
68193;BME280;55012;47.562;18.414;2023-03-01T13:19:20;100035.13;;;9.45;100.00
68193;BME280;55012;47.562;18.414;2023-03-01T13:21:48;100024.16;;;9.68;100.00
68193;BME280;55012;47.562;18.414;2023-03-01T13:24:40;100027.66;;;9.68;100.00
68193;BME280;55012;47.562;18.414;2023-03-01T13:32:24;100012.63;;;10.14;100.00
68193;BME280;55012;47.562;18.414;2023-03-01T13:34:52;100015.97;;;10.20;100.00
68193;BME280;55012;47.562;18.414;2023-03-01T13:37:24;100007.38;;;10.09;100.00
68193;BME280;55012;47.562;18.414;2023-03-01T13:39:51;100001.97;;;10.26;100.00
68193;BME280;55012;47.562;18.414;2023-03-01T13:44:56;100002.94;;;10.13;100.00
68193;BME280;55012;47.562;18.414;2023-03-01T13:47:22;99999.78;;;10.02;100.00
68193;BME280;55012;47.562;18.414;2023-03-01T13:49:52;100004.16;;;9.69;100.00
68193;BME280;55012;47.562;18.414;2023-03-01T13:57:41;99984.75;;;9.32;100.00
68193;BME280;55012;47.562;18.414;2023-03-01T14:00:24;99980.00;;;9.38;100.00
68193;BME280;55012;47.562;18.414;2023-03-01T14:03:23;99991.28;;;9.14;100.00
68193;BME280;55012;47.562;18.414;2023-03-01T14:06:01;99969.81;;;9.00;100.00
68193;BME280;55012;47.562;18.414;2023-03-01T14:08:29;99974.75;;;9.07;100.00
68193;BME280;55012;47.562;18.414;2023-03-01T14:13:43;99967.31;;;9.38;100.00
68193;BME280;55012;47.562;18.414;2023-03-01T14:21:13;99961.81;;;9.81;100.00
68193;BME280;55012;47.562;18.414;2023-03-01T14:23:41;99967.41;;;9.76;100.00
68193;BME280;55012;47.562;18.414;2023-03-01T14:26:08;99958.19;;;9.77;100.00
68193;BME280;55012;47.562;18.414;2023-03-01T14:28:36;99954.03;;;9.89;100.00
68193;BME280;55012;47.562;18.414;2023-03-01T14:33:55;99950.31;;;10.10;100.00
68193;BME280;55012;47.562;18.414;2023-03-01T14:36:26;99943.19;;;9.97;100.00